Time;durP1;ratioP1;P1;durP2;ratioP2;P2;SDS_P1;SDS_P2;PMS_P1;PMS_P2;Temp;Humidity;BMP_temperature;BMP_pressure;BME280_temperature;BME280_humidity;BME280_pressure;Samples;Min_cycle;Max_cycle;Signal;HPM_P1;HPM_P2
2023/04/28 00:02:18;;;;;;;26.20;15.40;;;;;;;3.94;70.95;100685.60;134224;1298;23212;-73
2023/04/28 00:05:24;;;;;;;31.30;15.70;;;;;;;3.93;71.00;100682.38;134306;1297;22356;-73
2023/04/28 00:08:26;;;;;;;35.50;16.90;;;;;;;3.93;71.17;100680.83;134316;1298;22702;-73
2023/04/28 00:11:27;;;;;;;34.20;17.80;;;;;;;3.90;70.90;100674.86;134187;1299;23271;-73
2023/04/28 00:14:30;;;;;;;29.50;16.30;;;;;;;3.84;71.23;100679.33;134219;1299;23100;-73
2023/04/28 00:17:31;;;;;;;30.30;16.00;;;;;;;3.86;71.30;100684.61;134339;1299;23660;-73
2023/04/28 00:20:52;;;;;;;29.40;16.50;;;;;;;3.93;71.27;100689.05;134348;1298;22389;-77
2023/04/28 00:23:53;;;;;;;;;;;;;;;3.98;71.40;100690.26;134357;1297;22509;-73
2023/04/28 00:26:56;;;;;;;29.80;15.90;;;;;;;4.02;71.70;100684.85;134299;1298;22953;-73
2023/04/28 00:30:00;;;;;;;27.00;15.70;;;;;;;4.06;72.00;100679.88;134189;1298;23101;-73
2023/04/28 00:33:01;;;;;;;26.70;14.80;;;;;;;4.10;72.00;100672.97;134334;1299;23099;-73
2023/04/28 00:36:11;;;;;;;35.60;15.30;;;;;;;4.04;71.84;100675.59;134336;1298;22348;-73
2023/04/28 00:39:17;;;;;;;30.90;16.60;;;;;;;3.97;72.17;100671.75;134301;1298;23064;-73
2023/04/28 00:42:21;;;;;;;30.80;16.20;;;;;;;3.97;72.08;100671.06;134307;1298;23031;-75
2023/04/28 00:45:21;;;;;;;30.20;16.40;;;;;;;4.01;72.15;100667.94;134379;1297;22607;-73
2023/04/28 00:48:23;;;;;;;32.40;18.10;;;;;;;4.03;72.03;100669.55;134342;1299;22486;-73
2023/04/28 00:51:24;;;;;;;32.20;16.20;;;;;;;3.99;72.02;100667.56;134167;1299;23754;-73
2023/04/28 00:54:24;;;;;;;;;;;;;;;3.95;72.43;100662.47;134222;1299;22491;-73
2023/04/28 00:57:25;;;;;;;27.50;15.80;;;;;;;3.90;72.42;100662.09;134353;1298;22549;-77
2023/04/28 01:00:27;;;;;;;30.20;17.60;;;;;;;3.91;72.34;100664.30;134330;1299;22494;-72
2023/04/28 01:03:28;;;;;;;;;;;;;;;3.91;72.38;100657.47;134033;1300;22444;-73
2023/04/28 01:06:30;;;;;;;30.70;16.10;;;;;;;3.86;72.53;100657.02;134230;1298;22404;-74
2023/04/28 01:09:32;;;;;;;32.00;15.10;;;;;;;3.81;72.49;100657.66;134156;1299;22555;-72
2023/04/28 01:12:32;;;;;;;27.70;15.20;;;;;;;3.76;72.56;100653.48;134112;1298;23078;-73
2023/04/28 01:15:36;;;;;;;30.60;16.70;;;;;;;3.73;72.66;100653.16;134224;1298;22149;-77
2023/04/28 01:18:41;;;;;;;31.90;18.00;;;;;;;3.69;72.86;100655.59;134338;1297;22339;-74
2023/04/28 01:21:42;;;;;;;36.70;17.60;;;;;;;3.61;72.71;100652.10;134036;1300;22200;-73
2023/04/28 01:24:59;;;;;;;27.30;15.20;;;;;;;3.53;72.74;100649.02;134196;1299;22806;-73
2023/04/28 01:28:02;;;;;;;29.20;15.80;;;;;;;3.42;73.01;100645.21;134255;1298;23113;-73
2023/04/28 01:31:11;;;;;;;28.00;16.30;;;;;;;3.32;73.33;100645.08;134201;1299;22902;-73
2023/04/28 01:34:12;;;;;;;29.70;14.70;;;;;;;3.23;73.42;100642.04;134197;1299;22347;-72
2023/04/28 01:37:13;;;;;;;;;;;;;;;3.17;73.60;100640.32;134184;1299;22425;-73
2023/04/28 01:40:26;;;;;;;26.50;14.20;;;;;;;3.12;73.63;100636.77;134327;1298;23134;-72
2023/04/28 01:43:28;;;;;;;25.10;13.90;;;;;;;3.08;73.59;100635.34;134321;1301;22347;-73
2023/04/28 01:46:31;;;;;;;26.30;13.70;;;;;;;3.03;73.71;100630.27;134170;1304;22388;-73
2023/04/28 01:49:32;;;;;;;29.50;13.80;;;;;;;3.01;73.84;100627.09;134320;1304;22398;-72
2023/04/28 01:52:33;;;;;;;26.10;13.80;;;;;;;3.00;73.72;100629.76;134325;1298;22389;-73
2023/04/28 01:55:34;;;;;;;31.10;14.30;;;;;;;3.00;73.76;100629.06;134204;1299;22355;-73
2023/04/28 01:58:35;;;;;;;;;;;;;;;3.02;73.90;100625.64;134288;1299;22479;-74
2023/04/28 02:01:36;;;;;;;23.70;13.20;;;;;;;3.01;73.98;100626.05;134331;1297;22451;-77
2023/04/28 02:04:37;;;;;;;28.50;14.30;;;;;;;2.98;73.90;100626.12;134148;1299;22539;-73
2023/04/28 02:07:42;;;;;;;23.40;14.70;;;;;;;2.97;73.99;100625.96;134193;1298;22456;-73
2023/04/28 02:10:46;;;;;;;;;;;;;;;2.97;74.21;100624.24;134356;1302;23323;-72
2023/04/28 02:13:56;;;;;;;25.50;13.80;;;;;;;2.96;74.20;100624.33;134322;1297;22351;-72
2023/04/28 02:17:04;;;;;;;21.40;14.00;;;;;;;2.96;74.42;100620.32;134183;1298;23385;-73
2023/04/28 02:20:08;;;;;;;26.40;15.40;;;;;;;2.96;74.15;100622.75;133938;1298;23134;-73
2023/04/28 02:23:09;;;;;;;30.50;16.10;;;;;;;2.96;74.27;100622.37;134303;1297;23179;-73
2023/04/28 02:26:10;;;;;;;30.40;15.20;;;;;;;2.98;74.30;100626.60;134262;1299;23138;-72
2023/04/28 02:29:11;;;;;;;33.90;17.40;;;;;;;3.01;74.24;100626.23;134154;1297;267221;-72
2023/04/28 02:32:12;;;;;;;29.40;17.50;;;;;;;3.04;74.27;100623.90;134185;1301;23175;-77
2023/04/28 02:35:13;;;;;;;29.80;16.00;;;;;;;3.07;74.15;100622.15;134339;1297;22492;-73
2023/04/28 02:38:14;;;;;;;25.60;15.30;;;;;;;3.10;74.35;100620.50;134357;1297;22367;-74
2023/04/28 02:41:15;;;;;;;;;;;;;;;3.16;74.47;100622.95;134315;1298;23209;-73
2023/04/28 02:44:16;;;;;;;25.70;13.90;;;;;;;3.17;74.75;100624.63;134333;1298;22338;-73
2023/04/28 02:47:17;;;;;;;31.40;17.40;;;;;;;3.15;74.55;100614.39;134335;1299;22366;-72
2023/04/28 02:50:27;;;;;;;31.70;19.00;;;;;;;3.14;74.81;100612.21;134353;1297;22464;-74
2023/04/28 02:53:31;;;;;;;30.00;17.00;;;;;;;3.10;74.56;100618.94;134319;1298;22286;-72
2023/04/28 02:56:33;;;;;;;30.40;16.80;;;;;;;3.04;74.66;100616.06;134095;1299;22342;-73
2023/04/28 02:59:38;;;;;;;32.30;17.30;;;;;;;3.01;74.66;100613.25;134102;1300;22307;-72
2023/04/28 03:02:38;;;;;;;;;;;;;;;3.03;74.74;100607.39;134281;1297;23155;-73
2023/04/28 03:05:39;;;;;;;31.80;17.70;;;;;;;3.05;74.70;100603.73;134319;1299;23105;-73
2023/04/28 03:08:40;;;;;;;;;;;;;;;3.10;74.43;100605.01;134304;1299;22462;-72
2023/04/28 03:11:41;;;;;;;33.20;21.00;;;;;;;3.13;74.34;100602.14;134335;1298;22350;-73
2023/04/28 03:14:42;;;;;;;33.10;19.90;;;;;;;3.15;74.33;100599.54;134206;1298;22444;-73
2023/04/28 03:17:46;;;;;;;30.10;19.10;;;;;;;3.19;74.26;100597.42;134302;1297;22554;-72
2023/04/28 03:20:51;;;;;;;31.80;18.40;;;;;;;3.20;74.62;100595.02;134321;1298;22228;-73
2023/04/28 03:23:54;;;;;;;29.60;17.90;;;;;;;3.18;74.44;100594.16;134189;1299;22213;-74
2023/04/28 03:27:04;;;;;;;36.70;18.10;;;;;;;3.16;74.60;100594.12;134158;1298;22429;-73
2023/04/28 03:30:09;;;;;;;32.40;17.10;;;;;;;3.17;74.52;100601.17;134180;1299;23279;-73
2023/04/28 03:33:13;;;;;;;31.00;15.80;;;;;;;3.17;74.74;100600.29;134328;1298;22855;-73
2023/04/28 03:36:19;;;;;;;32.00;16.00;;;;;;;3.19;74.34;100597.21;134212;1292;22522;-73
2023/04/28 03:39:20;;;;;;;29.80;17.00;;;;;;;3.22;74.35;100598.57;134340;1298;22424;-73
2023/04/28 03:42:21;;;;;;;34.30;18.40;;;;;;;3.27;74.36;100601.21;134329;1298;23248;-73
2023/04/28 03:45:41;;;;;;;33.10;18.50;;;;;;;3.30;74.56;100598.81;134302;1297;23252;-73
2023/04/28 03:48:42;;;;;;;33.70;17.70;;;;;;;3.34;74.46;100604.84;134144;1299;22442;-74
2023/04/28 03:51:50;;;;;;;30.20;17.20;;;;;;;3.39;74.10;100599.29;134325;1297;22503;-73
2023/04/28 03:55:00;;;;;;;33.70;17.10;;;;;;;3.43;74.07;100599.01;134237;1298;22481;-72
2023/04/28 03:58:04;;;;;;;32.60;17.40;;;;;;;3.43;74.03;100604.92;134186;1298;22370;-77
2023/04/28 04:01:08;;;;;;;31.50;17.20;;;;;;;3.40;74.16;100600.98;134135;1298;23371;-73
2023/04/28 04:04:08;;;;;;;26.00;16.20;;;;;;;3.39;74.34;100601.05;134331;1298;22296;-73
2023/04/28 04:07:13;;;;;;;30.80;16.60;;;;;;;3.41;74.37;100599.99;134148;1301;23259;-73
2023/04/28 04:10:16;;;;;;;31.60;16.80;;;;;;;3.45;74.38;100603.92;134183;1299;22395;-78
2023/04/28 04:13:40;;;;;;;30.40;16.80;;;;;;;3.48;74.14;100602.48;134095;1300;22502;-74
2023/04/28 04:16:43;;;;;;;40.50;18.00;;;;;;;3.53;74.23;100600.02;134265;1290;22360;-73
2023/04/28 04:19:44;;;;;;;;;;;;;;;3.60;74.31;100603.02;134348;1291;22433;-72
2023/04/28 04:22:45;;;;;;;31.50;17.60;;;;;;;3.64;74.17;100600.97;134122;1298;22367;-74
2023/04/28 04:25:46;;;;;;;34.90;17.40;;;;;;;3.70;74.13;100601.29;134105;1298;22907;-73
2023/04/28 04:28:57;;;;;;;32.90;16.60;;;;;;;3.86;74.55;100599.55;134154;1297;22470;-73
2023/04/28 04:31:58;;;;;;;32.50;17.20;;;;;;;4.26;74.35;100602.59;134246;1299;23165;-74
2023/04/28 04:34:58;;;;;;;31.50;17.20;;;;;;;4.62;73.94;100601.45;134267;1292;23243;-74
2023/04/28 04:38:00;;;;;;;29.20;17.00;;;;;;;4.97;73.77;100600.66;134170;1299;22143;-75
2023/04/28 04:41:01;;;;;;;29.80;16.40;;;;;;;5.37;73.41;100603.20;134154;1299;22418;-74
2023/04/28 04:44:03;;;;;;;32.80;16.40;;;;;;;5.71;73.09;100599.71;134196;1301;22394;-74
2023/04/28 04:47:09;;;;;;;31.30;15.00;;;;;;;6.04;72.50;100593.95;134175;1302;22412;-72
2023/04/28 04:50:11;;;;;;;30.50;15.70;;;;;;;6.39;72.37;100590.90;134194;1300;23151;-76
2023/04/28 04:53:15;;;;;;;29.10;16.00;;;;;;;6.68;71.73;100587.40;134181;1298;22416;-74
2023/04/28 04:56:26;;;;;;;24.90;14.20;;;;;;;6.70;70.93;100578.05;134196;1299;23106;-74
2023/04/28 04:59:36;;;;;;;27.40;14.40;;;;;;;6.59;70.49;100579.50;134059;1299;22475;-76
2023/04/28 05:02:57;;;;;;;;;;;;;;;6.50;70.46;100578.73;134307;1298;22459;-73
2023/04/28 05:05:58;;;;;;;25.10;15.50;;;;;;;6.44;70.36;100573.27;134153;1297;22261;-72
2023/04/28 05:09:07;;;;;;;23.80;15.10;;;;;;;6.41;70.30;100573.47;134154;1298;22381;-73
2023/04/28 05:12:12;;;;;;;25.20;14.50;;;;;;;6.41;70.20;100575.07;134166;1298;23129;-73
2023/04/28 05:15:13;;;;;;;28.90;16.20;;;;;;;6.32;69.98;100574.43;134323;1298;22368;-73
2023/04/28 05:18:17;;;;;;;27.60;15.70;;;;;;;6.27;70.03;100575.90;134280;1299;23510;-73
2023/04/28 05:21:29;;;;;;;26.70;14.40;;;;;;;6.21;69.69;100574.47;134045;1301;22397;-73
2023/04/28 05:24:31;;;;;;;30.70;15.20;;;;;;;6.18;69.50;100575.58;134054;1299;22370;-75
2023/04/28 05:27:32;;;;;;;;;;;;;;;6.22;69.36;100572.79;134369;1289;22450;-73
2023/04/28 05:30:33;;;;;;;26.50;14.60;;;;;;;6.27;69.11;100573.38;134227;1298;23063;-74
2023/04/28 05:33:34;;;;;;;32.00;15.50;;;;;;;6.30;69.00;100572.29;134050;1302;22377;-72
2023/04/28 05:36:35;;;;;;;30.70;15.70;;;;;;;6.33;68.61;100573.84;134244;1299;22464;-73
2023/04/28 05:39:36;;;;;;;23.70;14.80;;;;;;;6.40;68.48;100570.91;134174;1298;22430;-73
2023/04/28 05:42:58;;;;;;;26.10;14.40;;;;;;;6.47;68.15;100574.96;134243;1299;22423;-73
2023/04/28 05:45:59;;;;;;;;;;;;;;;6.55;67.84;100574.10;134173;1298;22615;-73
2023/04/28 05:49:00;;;;;;;29.40;16.00;;;;;;;6.59;67.62;100575.31;134163;1299;22398;-73
2023/04/28 05:52:05;;;;;;;28.30;15.60;;;;;;;6.57;66.71;100578.16;134117;1302;22356;-74
2023/04/28 05:55:07;;;;;;;35.80;15.30;;;;;;;6.59;66.65;100576.20;134331;1298;23048;-73
2023/04/28 05:58:08;;;;;;;26.20;16.20;;;;;;;6.67;67.08;100570.77;134078;1298;22344;-73
2023/04/28 06:01:09;;;;;;;28.90;14.70;;;;;;;6.81;66.02;100564.48;134173;1299;22401;-74
2023/04/28 06:04:10;;;;;;;28.60;15.50;;;;;;;6.85;65.83;100562.75;134017;1302;22361;-73
2023/04/28 06:07:11;;;;;;;26.80;16.40;;;;;;;6.88;65.50;100563.21;134351;1298;22371;-74
2023/04/28 06:10:40;;;;;;;26.60;16.20;;;;;;;6.95;65.57;100564.00;134208;1297;22409;-75
2023/04/28 06:13:40;;;;;;;;;;;;;;;7.32;66.01;100559.85;134317;1298;23200;-75
2023/04/28 06:16:41;;;;;;;25.00;14.20;;;;;;;7.77;64.46;100556.39;134187;1297;22293;-73
2023/04/28 06:19:42;;;;;;;25.40;14.20;;;;;;;8.01;63.16;100556.66;134251;1300;22450;-75
2023/04/28 06:22:43;;;;;;;24.80;15.60;;;;;;;8.34;64.21;100549.42;134035;1299;22459;-74
2023/04/28 06:25:44;;;;;;;25.40;14.60;;;;;;;8.56;61.89;100545.17;133977;1299;22456;-73
2023/04/28 06:28:45;;;;;;;;;;;;;;;8.60;61.48;100546.74;134010;1298;22509;-74
2023/04/28 06:31:45;;;;;;;22.80;14.30;;;;;;;8.85;61.60;100543.79;133999;1305;22370;-74
2023/04/28 06:34:47;;;;;;;26.20;15.80;;;;;;;9.17;60.64;100542.02;133814;1301;23108;-74
2023/04/28 06:37:48;;;;;;;24.40;14.50;;;;;;;9.23;60.14;100538.44;134206;1298;23116;-74
2023/04/28 06:40:49;;;;;;;27.30;15.10;;;;;;;9.09;60.78;100536.76;133839;1299;22507;-74
2023/04/28 06:43:50;;;;;;;26.70;14.70;;;;;;;9.16;60.52;100536.97;133981;1299;22210;-72
2023/04/28 06:46:57;;;;;;;23.90;13.40;;;;;;;9.62;60.65;100537.30;133855;1299;22444;-73
2023/04/28 06:50:01;;;;;;;;;;;;;;;10.13;59.69;100532.47;134194;1297;23154;-70
2023/04/28 06:53:10;;;;;;;25.70;14.10;;;;;;;10.40;57.49;100530.45;134045;1298;22505;-70
2023/04/28 06:56:13;;;;;;;23.40;13.60;;;;;;;10.69;58.19;100528.27;134218;1299;22372;-70
2023/04/28 06:59:14;;;;;;;;;;;;;;;11.05;58.50;100531.20;134254;1298;22479;-70
2023/04/28 07:02:15;;;;;;;20.50;13.10;;;;;;;11.31;57.09;100529.73;134260;1298;22339;-72
2023/04/28 07:05:16;;;;;;;;;;;;;;;11.58;57.52;100528.14;134227;1298;23184;-71
2023/04/28 07:08:16;;;;;;;20.50;12.10;;;;;;;12.10;57.04;100524.11;134009;1301;22357;-71
2023/04/28 07:11:18;;;;;;;18.50;12.00;;;;;;;12.38;56.07;100519.50;133950;1301;23322;-70
2023/04/28 07:14:19;;;;;;;23.20;13.30;;;;;;;12.37;55.74;100519.31;134212;1305;22386;-71
2023/04/28 07:17:41;;;;;;;24.30;13.10;;;;;;;12.47;55.46;100517.77;134195;1299;22243;-70
2023/04/28 07:20:46;;;;;;;19.20;11.50;;;;;;;12.44;54.20;100509.66;134218;1298;22505;-70
2023/04/28 07:23:48;;;;;;;20.10;10.60;;;;;;;12.43;52.54;100503.50;134379;1297;22359;-70
2023/04/28 07:26:49;;;;;;;22.90;11.80;;;;;;;12.58;52.73;100497.21;134397;1297;22194;-70
2023/04/28 07:29:50;;;;;;;21.90;11.30;;;;;;;12.96;51.97;100494.98;134195;1298;22443;-71
2023/04/28 07:32:55;;;;;;;19.50;10.90;;;;;;;13.25;52.23;100493.76;134364;1297;22357;-71
2023/04/28 07:35:56;;;;;;;17.70;10.00;;;;;;;13.61;51.81;100490.38;134373;1297;22305;-71
2023/04/28 07:39:00;;;;;;;18.50;10.40;;;;;;;13.80;51.13;100487.16;134372;1297;22427;-74
2023/04/28 07:42:02;;;;;;;14.00;9.90;;;;;;;13.95;50.21;100480.63;134346;1298;23148;-76
2023/04/28 07:45:08;;;;;;;13.80;9.40;;;;;;;14.26;50.28;100478.13;134346;1298;22241;-74
2023/04/28 07:48:10;;;;;;;14.70;9.20;;;;;;;14.38;49.44;100476.54;134200;1298;22508;-71
2023/04/28 07:51:11;;;;;;;18.90;9.80;;;;;;;14.34;49.33;100474.02;134306;1299;23188;-71
2023/04/28 07:54:12;;;;;;;17.10;10.50;;;;;;;14.84;49.40;100471.98;134093;1301;22404;-71
2023/04/28 07:57:13;;;;;;;15.10;9.90;;;;;;;15.41;48.03;100466.95;134126;1301;22374;-70
2023/04/28 08:00:14;;;;;;;15.30;9.40;;;;;;;15.69;47.01;100465.22;134279;1298;22359;-71
2023/04/28 08:03:15;;;;;;;13.70;7.70;;;;;;;15.94;46.52;100468.45;134174;1301;22368;-70
2023/04/28 08:06:16;;;;;;;16.70;8.00;;;;;;;16.04;44.31;100461.05;134191;1299;22951;-68
2023/04/28 08:09:17;;;;;;;15.60;8.80;;;;;;;15.98;44.50;100465.77;133857;1299;22535;-68
2023/04/28 08:12:18;;;;;;;18.60;10.50;;;;;;;16.06;44.12;100462.63;134111;1298;24381;-69
2023/04/28 08:15:19;;;;;;;15.00;8.70;;;;;;;16.06;43.74;100460.11;134089;1298;23168;-71
2023/04/28 08:18:20;;;;;;;14.30;8.20;;;;;;;15.90;42.10;100454.96;134121;1299;22474;-71
2023/04/28 08:21:23;;;;;;;19.20;9.20;;;;;;;15.67;40.89;100455.40;134311;1297;22422;-72
2023/04/28 08:24:24;;;;;;;12.40;7.10;;;;;;;15.48;42.19;100454.27;134299;1297;23094;-70
2023/04/28 08:27:25;;;;;;;15.60;7.70;;;;;;;15.55;43.18;100448.69;134171;1298;23541;-70
2023/04/28 08:30:26;;;;;;;12.30;8.40;;;;;;;15.60;42.69;100447.80;134080;1299;23255;-70
2023/04/28 08:33:27;;;;;;;18.70;9.50;;;;;;;15.58;42.34;100443.58;134122;1298;22370;-70
2023/04/28 08:36:31;;;;;;;12.30;7.80;;;;;;;15.83;42.75;100441.06;133988;1298;23227;-72
2023/04/28 08:39:34;;;;;;;16.40;7.20;;;;;;;16.11;42.25;100436.10;134311;1298;22352;-76
2023/04/28 08:42:39;;;;;;;14.90;7.10;;;;;;;16.44;41.93;100434.84;134193;1299;22530;-69
2023/04/28 08:45:41;;;;;;;14.40;7.70;;;;;;;16.58;41.11;100434.49;134166;1298;23154;-68
2023/04/28 08:48:47;;;;;;;11.70;6.70;;;;;;;16.50;40.79;100426.79;134061;1298;22473;-69
2023/04/28 08:51:59;;;;;;;13.50;6.60;;;;;;;16.52;40.64;100422.06;134319;1297;23233;-69
2023/04/28 08:55:07;;;;;;;12.00;6.10;;;;;;;16.84;40.59;100418.70;134175;1297;22378;-69
2023/04/28 08:58:11;;;;;;;10.10;6.10;;;;;;;16.88;38.71;100422.20;134312;1299;22179;-69
2023/04/28 09:01:13;;;;;;;13.80;8.20;;;;;;;16.86;39.66;100416.14;134354;1297;22419;-69
2023/04/28 09:04:16;;;;;;;12.60;6.60;;;;;;;17.09;38.83;100417.20;134367;1297;22905;-69
2023/04/28 09:07:17;;;;;;;14.10;6.30;;;;;;;17.08;38.77;100414.88;134389;1298;22380;-69
2023/04/28 09:10:27;;;;;;;9.60;6.20;;;;;;;17.06;39.03;100410.52;134355;1298;22466;-70
2023/04/28 09:13:28;;;;;;;12.00;6.70;;;;;;;16.92;38.92;100409.23;134174;1302;23559;-68
2023/04/28 09:16:40;;;;;;;12.40;6.90;;;;;;;16.61;37.99;100401.50;134161;1298;22998;-70
2023/04/28 09:19:44;;;;;;;12.30;6.80;;;;;;;16.53;38.42;100399.23;134061;1298;22477;-69
2023/04/28 09:22:45;;;;;;;11.20;6.40;;;;;;;16.53;37.56;100393.25;134179;1301;22511;-70
2023/04/28 09:26:00;;;;;;;17.00;8.10;;;;;;;16.59;37.30;100386.77;134361;1298;22367;-73
2023/04/28 09:29:13;;;;;;;12.40;7.10;;;;;;;16.71;38.06;100380.23;134371;1298;22148;-70
2023/04/28 09:32:19;;;;;;;10.50;7.00;;;;;;;17.14;39.28;100376.88;134331;1298;22196;-69
2023/04/28 09:35:41;;;;;;;11.20;5.80;;;;;;;17.45;38.72;100370.39;134157;1299;22444;-70
2023/04/28 09:38:44;;;;;;;11.50;6.40;;;;;;;17.55;35.88;100367.27;134168;1289;22412;-69
2023/04/28 09:41:45;;;;;;;11.20;5.80;;;;;;;17.50;36.68;100365.19;134357;1297;22227;-70
2023/04/28 09:45:02;;;;;;;9.60;5.70;;;;;;;17.54;36.02;100358.96;134332;1302;22139;-70
2023/04/28 09:48:09;;;;;;;14.20;5.50;;;;;;;17.46;35.97;100348.58;134193;1299;22353;-70
2023/04/28 09:51:20;;;;;;;12.20;5.10;;;;;;;17.45;35.31;100342.88;134348;1298;23474;-70
2023/04/28 09:54:44;;;;;;;9.70;4.70;;;;;;;17.39;35.04;100342.71;133931;1301;22402;-70
2023/04/28 09:57:48;;;;;;;10.30;5.10;;;;;;;17.64;36.27;100335.48;134337;1298;23037;-69
2023/04/28 10:00:52;;;;;;;14.90;6.40;;;;;;;17.83;35.48;100333.95;134163;1299;22609;-69
2023/04/28 10:03:59;;;;;;;11.20;5.40;;;;;;;18.03;36.01;100328.25;134335;1298;22413;-69
2023/04/28 10:07:01;;;;;;;10.90;5.20;;;;;;;18.26;36.32;100321.50;134231;1297;22254;-73
2023/04/28 10:10:02;;;;;;;9.50;5.40;;;;;;;18.42;35.16;100322.67;134349;1302;22443;-69
2023/04/28 10:13:09;;;;;;;16.30;7.10;;;;;;;18.39;34.37;100316.60;134191;1298;22424;-69
2023/04/28 10:16:13;;;;;;;8.20;5.20;;;;;;;18.26;34.32;100310.55;134337;1297;22370;-69
2023/04/28 10:19:14;;;;;;;8.80;5.70;;;;;;;18.10;34.15;100307.96;134187;1299;22379;-70
2023/04/28 10:22:42;;;;;;;13.30;5.50;;;;;;;18.10;34.61;100301.84;134328;1298;22417;-69
2023/04/28 10:25:48;;;;;;;10.00;5.80;;;;;;;17.95;33.64;100298.96;134336;1299;22160;-73
2023/04/28 10:28:50;;;;;;;9.10;5.10;;;;;;;17.71;34.08;100296.87;134381;1292;22417;-68
2023/04/28 10:32:14;;;;;;;11.30;5.20;;;;;;;17.88;34.68;100285.52;134186;1299;22832;-70
2023/04/28 10:35:21;;;;;;;13.30;6.10;;;;;;;18.10;34.58;100285.70;134345;1298;22360;-69
2023/04/28 10:38:22;;;;;;;12.60;6.00;;;;;;;18.16;34.08;100279.93;134333;1298;22402;-69
2023/04/28 10:41:35;;;;;;;11.50;5.40;;;;;;;18.13;34.39;100279.56;134198;1298;22375;-69
2023/04/28 10:44:58;;;;;;;10.80;5.60;;;;;;;18.24;35.15;100273.61;134361;1298;22454;-69
2023/04/28 10:48:03;;;;;;;13.80;6.80;;;;;;;18.53;34.62;100271.98;134364;1298;22506;-70
2023/04/28 10:51:15;;;;;;;11.80;5.50;;;;;;;18.33;33.86;100263.58;134345;1297;22399;-69
2023/04/28 10:54:16;;;;;;;14.70;6.70;;;;;;;18.29;34.67;100260.00;134333;1298;22470;-69
2023/04/28 10:57:42;;;;;;;10.00;6.10;;;;;;;18.38;34.04;100254.78;133959;1297;22618;-69
2023/04/28 11:00:44;;;;;;;13.10;6.00;;;;;;;18.36;35.19;100252.58;134205;1298;22826;-69
2023/04/28 11:03:52;;;;;;;13.30;5.60;;;;;;;18.50;34.98;100247.20;133960;1300;22465;-70
2023/04/28 11:07:12;;;;;;;13.00;5.20;;;;;;;18.67;34.96;100252.23;134066;1299;22413;-69
2023/04/28 11:10:13;;;;;;;11.20;5.90;;;;;;;18.80;34.69;100256.43;134193;1304;22446;-69
2023/04/28 11:13:33;;;;;;;11.80;5.50;;;;;;;18.51;34.21;100251.74;134359;1299;22427;-69
2023/04/28 11:16:50;;;;;;;13.30;5.50;;;;;;;18.35;34.58;100243.52;134342;1298;22497;-69
2023/04/28 11:20:04;;;;;;;;;;;;;;;;;;;;;
2023/04/28 11:23:07;;;;;;;14.70;4.80;;;;;;;18.53;35.22;100243.59;134317;1298;22511;-68
2023/04/28 11:26:13;;;;;;;10.10;5.20;;;;;;;18.76;35.33;100245.44;133749;1298;22364;-69
2023/04/28 11:29:14;;;;;;;8.80;4.30;;;;;;;18.99;35.48;100239.63;134257;1298;22472;-72
2023/04/28 11:32:15;;;;;;;8.30;4.80;;;;;;;19.18;35.37;100236.16;134049;1304;22368;-75
2023/04/28 11:35:43;;;;;;;10.70;5.00;;;;;;;19.14;33.91;100238.17;134218;1298;22348;-73
2023/04/28 11:38:47;;;;;;;6.30;4.20;;;;;;;18.62;33.51;100235.84;133961;1302;22149;-73
2023/04/28 11:41:48;;;;;;;7.50;3.50;;;;;;;18.37;34.56;100229.46;133880;1298;22385;-73
2023/04/28 11:44:54;;;;;;;10.60;4.20;;;;;;;18.49;34.88;100234.98;134273;1300;22383;-75
2023/04/28 11:48:17;;;;;;;10.40;4.10;;;;;;;18.55;34.40;100231.73;134262;1298;22365;-74
2023/04/28 11:51:40;;;;;;;10.90;5.10;;;;;;;18.27;33.96;100230.38;134144;1302;22479;-74
2023/04/28 11:54:44;;;;;;;8.20;3.60;;;;;;;18.06;33.65;100225.39;134180;1298;22430;-73
2023/04/28 11:57:48;;;;;;;5.50;3.30;;;;;;;18.23;35.04;100212.35;134201;1298;22425;-73
2023/04/28 12:01:15;;;;;;;9.80;4.80;;;;;;;18.54;34.18;100215.67;133799;1304;22367;-74
2023/04/28 12:04:49;;;;;;;10.70;4.00;;;;;;;18.40;33.32;100210.52;133801;1298;22381;-77
2023/04/28 12:08:01;;;;;;;7.40;3.40;;;;;;;18.25;33.28;100200.23;134147;1298;22430;-75
2023/04/28 12:11:13;;;;;;;7.80;3.80;;;;;;;18.12;32.65;100191.33;134200;1298;22365;-75
2023/04/28 12:14:16;;;;;;;8.00;4.00;;;;;;;17.90;32.88;100199.57;133923;1298;23208;-74
2023/04/28 12:17:27;;;;;;;9.10;3.30;;;;;;;17.84;33.16;100196.45;133925;1298;23032;-74
2023/04/28 12:20:36;;;;;;;7.50;4.60;;;;;;;17.87;33.74;100192.97;133970;1298;22545;-73
2023/04/28 12:23:42;;;;;;;11.10;5.30;;;;;;;18.06;34.23;100184.35;134083;1299;22320;-74
2023/04/28 12:26:52;;;;;;;7.90;3.60;;;;;;;18.28;33.85;100182.56;134369;1299;22241;-75
2023/04/28 12:29:55;;;;;;;6.50;3.60;;;;;;;18.21;33.76;100177.86;134380;1299;22419;-75
2023/04/28 12:33:05;;;;;;;8.50;3.50;;;;;;;18.06;33.00;100175.95;134348;1297;22375;-73
2023/04/28 12:36:09;;;;;;;10.30;3.30;;;;;;;17.88;32.89;100173.85;134120;1296;22371;-73
2023/04/28 12:39:15;;;;;;;9.50;4.00;;;;;;;17.75;33.48;100180.86;134230;1299;22415;-75
2023/04/28 12:42:16;;;;;;;7.60;3.50;;;;;;;17.81;34.07;100179.08;134401;1298;22363;-73
2023/04/28 12:45:17;;;;;;;10.80;3.40;;;;;;;17.96;34.60;100179.23;134379;1295;22147;-73
2023/04/28 12:48:24;;;;;;;11.50;3.50;;;;;;;18.25;34.79;100175.80;134243;1296;22431;-81
2023/04/28 12:51:28;;;;;;;4.40;2.90;;;;;;;18.48;34.72;100174.75;134157;1304;22458;-72
2023/04/28 12:54:31;;;;;;;8.10;3.90;;;;;;;18.65;33.99;100172.16;134388;1296;24691;-78
2023/04/28 12:57:36;;;;;;;9.10;4.80;;;;;;;18.58;34.02;100163.33;134197;1293;22370;-83
2023/04/28 13:00:40;;;;;;;7.00;3.70;;;;;;;18.51;34.28;100159.86;134217;1302;22383;-72
2023/04/28 13:03:42;;;;;;;7.60;3.40;;;;;;;18.45;34.45;100158.73;134463;1295;22426;-73
2023/04/28 13:06:43;;;;;;;9.00;3.20;;;;;;;18.41;34.60;100156.98;134401;1302;22121;-74
2023/04/28 13:09:45;;;;;;;8.40;3.90;;;;;;;18.31;34.22;100151.40;134204;1299;22424;-73
2023/04/28 13:12:46;;;;;;;6.50;4.00;;;;;;;18.15;34.48;100149.92;134362;1297;22374;-73
2023/04/28 13:15:47;;;;;;;5.60;3.50;;;;;;;18.08;34.67;100141.24;134391;1298;24023;-72
2023/04/28 13:18:51;;;;;;;9.90;3.70;;;;;;;17.98;35.00;100135.06;134133;1298;22356;-79
2023/04/28 13:21:52;;;;;;;10.50;3.20;;;;;;;17.88;35.25;100131.16;134390;1296;22564;-72
2023/04/28 13:24:53;;;;;;;11.30;3.40;;;;;;;17.88;35.13;100134.66;134034;1299;22151;-72
2023/04/28 13:27:54;;;;;;;8.60;3.30;;;;;;;17.84;34.97;100132.13;134343;1296;22207;-76
2023/04/28 13:30:55;;;;;;;7.00;3.90;;;;;;;17.77;34.89;100129.90;134398;1299;22431;-75
2023/04/28 13:33:56;;;;;;;9.00;3.60;;;;;;;17.77;35.34;100130.98;134395;1299;22491;-71
2023/04/28 13:37:00;;;;;;;12.40;3.50;;;;;;;17.93;35.66;100129.20;134394;1296;22348;-72
2023/04/28 13:40:02;;;;;;;7.50;3.40;;;;;;;18.12;35.23;100121.81;134227;1295;22425;-71
2023/04/28 13:43:03;;;;;;;6.70;3.40;;;;;;;18.11;34.78;100120.36;134263;1298;23175;-73
2023/04/28 13:46:07;;;;;;;8.60;4.10;;;;;;;18.09;33.95;100112.83;134196;1299;23139;-72
2023/04/28 13:49:11;;;;;;;5.10;3.00;;;;;;;17.98;33.68;100109.67;134373;1298;22446;-72
2023/04/28 13:52:12;;;;;;;10.40;2.80;;;;;;;17.98;34.26;100104.26;134122;1297;22344;-71
2023/04/28 13:55:16;;;;;;;13.80;3.30;;;;;;;18.19;34.59;100099.08;134239;1296;22347;-74
2023/04/28 13:58:17;;;;;;;6.30;3.30;;;;;;;18.28;34.20;100095.60;134369;1296;22370;-74
2023/04/28 14:01:20;;;;;;;3.80;2.70;;;;;;;18.09;34.26;100087.92;134378;1298;22467;-74
2023/04/28 14:04:21;;;;;;;7.40;3.10;;;;;;;18.01;34.60;100091.36;134409;1296;22591;-75
2023/04/28 14:07:22;;;;;;;6.00;2.80;;;;;;;17.95;34.40;100087.77;134403;1297;22403;-73
2023/04/28 14:10:23;;;;;;;7.10;3.30;;;;;;;17.89;34.06;100092.33;134396;1297;22360;-73